Fall Rock, KY

2:49 PM EDT on May 27, 2015 (GMT -0400)
London-Corbin / McKee | | Change Station
CLOSE
Current Station
Airport
Location: London-Corbin,
Elevation: 1211 ft
Nearby Weather Stations

Elev 1211 ft 37.09 °N, 84.08 °W | Updated 56 minutes ago

Mostly Cloudy
Mostly Cloudy
79 °F
Feels Like 79 °F
N
6
Wind Variable Wind from Variable

Today
High -- | Low -- °F
--% Chance of Precip.
Yesterday
High -- | Low -- °F
Precip. -- in
6:18 AM 8:46 PM
Waxing Gibbous, 69% visible
Pressure 30.19 in
Visibility 10.0 miles
Clouds Scattered Clouds 3200 ft
Mostly Cloudy 4300 ft
Dew Point 59 °F
Humidity 50%
Rainfall 0.00 in
Snow Depth Not available.
UV 6 out of 12
Pollen 6.60 out of 12
Air Quality Not available.
Flu Activity Sporadic
METAR KLOZ 271753Z AUTO VRB05KT 10SM SCT032 BKN043 26/15 A3022 RMK AO2 SLP221 T02610150 10267 20200 58005

More Conditions Fewer Conditions

Pressure 30.19 in
Visibility 10.0 miles
Clouds Scattered Clouds 3200 ft
Mostly Cloudy 4300 ft
Dew Point 59 °F
Humidity 50%
Rainfall 0.00 in
Snow Depth Not available.
UV 6 out of 12
Pollen 6.60 out of 12
Air Quality Not available.
Flu Activity Sporadic
METAR KLOZ 271753Z AUTO VRB05KT 10SM SCT032 BKN043 26/15 A3022 RMK AO2 SLP221 T02610150 10267 20200 58005

More Conditions Fewer Conditions

10-Day Weather Forecast

Almanac

Astronomy

May. 27, 2015 Rise Set
Actual Time
Civil Twilight
Nautical Twilight
Astronomical Twilight
Moon
Length of Visible Light
Length of Day
Tomorrow will be .
, % of the Moon is Illuminated

Today's Extremes

State Highs State Lows

Community

WunderPhotos

Upload Photos

1,824,757 photos uploaded!

WunderBlogs® & News

Nearby

Air Quality

  Air Quality AQ Index Pollutant
Not available.

Snow Depth

Station Depth Elevation

Earthquake Activity

City Distance Mag. Time & Date
Minimum magnitude displayed is 2.5.

Coastal Water Temperatures

Place Temperature

Stations

Nearby Weather Stations

Station Location Temp. Windchill Dew Point Humidity Wind Precip. Elev Updated Type